Time;durP1;ratioP1;P1;durP2;ratioP2;P2;SDS_P1;SDS_P2;PMS_P1;PMS_P2;Temp;Humidity;BMP_temperature;BMP_pressure;BME280_temperature;BME280_humidity;BME280_pressure;Samples;Min_cycle;Max_cycle;Signal;HPM_P1;HPM_P2
2023/01/01 00:01:40;;;;;;;22.08;11.88;;;;;;;;;;5041311;28;20037;-80
2023/01/01 00:04:10;;;;;;;29.52;15.85;;;;;;;;;;5045002;28;20026;-81
2023/01/01 00:06:36;;;;;;;26.67;17.17;;;;;;;;;;5046076;28;20052;-81
2023/01/01 00:11:47;;;;;;;41.25;18.38;;;;;;;;;;5044999;28;20089;-80
2023/01/01 00:14:13;;;;;;;33.08;17.58;;;;;;;;;;5042777;28;20053;-80
2023/01/01 00:16:39;;;;;;;29.20;17.45;;;;;;;;;;5043353;28;20602;-80
2023/01/01 00:19:05;;;;;;;32.10;18.40;;;;;;;;;;5043598;28;20029;-81
2023/01/01 00:21:31;;;;;;;33.53;18.52;;;;;;;;;;5040306;28;20063;-81
2023/01/01 00:23:57;;;;;;;25.25;14.95;;;;;;;;;;5039443;28;20081;-80
2023/01/01 00:26:23;;;;;;;30.45;14.43;;;;;;;;;;5042143;28;20476;-81
2023/01/01 00:28:49;;;;;;;23.83;13.63;;;;;;;;;;5042185;28;20033;-81
2023/01/01 00:31:19;;;;;;;21.08;10.27;;;;;;;;;;5025944;28;20117;-81
2023/01/01 00:33:49;;;;;;;26.02;11.43;;;;;;;;;;5024657;28;20029;-81
2023/01/01 00:36:16;;;;;;;21.52;10.30;;;;;;;;;;5023792;28;20389;-81
2023/01/01 00:38:43;;;;;;;21.13;8.73;;;;;;;;;;5022871;28;20037;-81
2023/01/01 00:41:09;;;;;;;24.48;9.07;;;;;;;;;;5013538;28;20044;-81
2023/01/01 00:43:35;;;;;;;18.10;7.43;;;;;;;;;;5048814;28;20032;-81
2023/01/01 00:46:01;;;;;;;16.02;6.90;;;;;;;;;;5033390;28;20026;-81
2023/01/01 00:48:27;;;;;;;20.52;7.47;;;;;;;;;;5038463;28;20041;-81
2023/01/01 00:50:54;;;;;;;15.90;6.47;;;;;;;;;;5042144;28;20025;-81
2023/01/01 00:53:20;;;;;;;13.90;5.15;;;;;;;;;;5046454;28;20036;-81
2023/01/01 00:55:47;;;;;;;12.07;4.28;;;;;;;;;;5050227;28;20036;-81
2023/01/01 00:58:13;;;;;;;14.00;4.63;;;;;;;;;;5049205;28;20053;-81
2023/01/01 01:00:40;;;;;;;12.48;4.45;;;;;;;;;;5049164;28;20045;-81
2023/01/01 01:03:06;;;;;;;10.20;3.78;;;;;;;;;;5048791;28;20034;-81
2023/01/01 01:05:33;;;;;;;14.20;3.97;;;;;;;;;;5049049;28;20101;-81
2023/01/01 01:07:59;;;;;;;14.95;4.70;;;;;;;;;;5043120;28;20034;-81
2023/01/01 01:10:25;;;;;;;13.90;4.57;;;;;;;;;;5047440;28;20034;-81
2023/01/01 01:12:51;;;;;;;14.35;3.65;;;;;;;;;;5048913;28;20052;-81
2023/01/01 01:15:18;;;;;;;13.85;3.90;;;;;;;;;;5040576;28;20025;-81
2023/01/01 01:17:44;;;;;;;14.27;4.20;;;;;;;;;;5044933;28;20064;-82
2023/01/01 01:20:11;;;;;;;14.90;4.28;;;;;;;;;;5033519;28;20028;-82
2023/01/01 01:22:37;;;;;;;16.45;4.63;;;;;;;;;;5019985;28;20022;-82
2023/01/01 01:25:03;;;;;;;13.43;4.22;;;;;;;;;;5057267;28;20029;-83
2023/01/01 01:27:29;;;;;;;23.13;4.60;;;;;;;;;;5052906;28;20037;-83
2023/01/01 01:29:55;;;;;;;11.88;4.20;;;;;;;;;;5052553;28;20029;-83
2023/01/01 01:32:21;;;;;;;18.48;4.50;;;;;;;;;;5043751;28;20060;-82
2023/01/01 01:34:47;;;;;;;16.35;3.92;;;;;;;;;;5051478;28;20029;-82
2023/01/01 01:37:13;;;;;;;13.57;3.75;;;;;;;;;;5050697;28;20033;-83
2023/01/01 01:39:39;;;;;;;15.80;3.70;;;;;;;;;;5049496;28;20033;-82
2023/01/01 01:42:05;;;;;;;16.83;4.57;;;;;;;;;;5048885;28;20032;-83
2023/01/01 01:44:47;;;;;;;14.52;3.92;;;;;;;;;;5049120;28;20522;-82
2023/01/01 01:47:24;;;;;;;13.93;3.75;;;;;;;;;;5049257;28;20025;-83
2023/01/01 01:49:53;;;;;;;11.65;3.97;;;;;;;;;;5039352;28;20489;-82
2023/01/01 01:52:19;;;;;;;15.57;4.40;;;;;;;;;;5040449;28;20052;-82
2023/01/01 01:54:45;;;;;;;13.82;4.07;;;;;;;;;;5046813;28;20036;-83
2023/01/01 01:57:12;;;;;;;16.50;3.70;;;;;;;;;;5036718;28;20030;-83
2023/01/01 01:59:41;;;;;;;16.52;3.55;;;;;;;;;;5044186;28;20096;-83
2023/01/01 02:02:12;;;;;;;12.48;3.33;;;;;;;;;;5043533;28;20396;-83
2023/01/01 02:04:38;;;;;;;14.98;3.60;;;;;;;;;;5043729;28;20025;-82
2023/01/01 02:07:04;;;;;;;13.68;4.45;;;;;;;;;;5043439;28;20047;-83
2023/01/01 02:09:30;;;;;;;10.85;3.22;;;;;;;;;;5042855;28;20117;-82
2023/01/01 02:11:57;;;;;;;15.48;3.05;;;;;;;;;;5042544;28;20028;-82
2023/01/01 02:14:23;;;;;;;12.50;3.78;;;;;;;;;;5042106;28;20028;-83
2023/01/01 02:16:52;;;;;;;7.03;2.55;;;;;;;;;;5042724;28;20025;-82
2023/01/01 02:19:18;;;;;;;14.70;3.25;;;;;;;;;;5043097;28;20034;-82
2023/01/01 02:21:50;;;;;;;11.27;3.25;;;;;;;;;;5025227;28;20026;-82
2023/01/01 02:24:34;;;;;;;14.00;3.17;;;;;;;;;;5041600;28;20071;-82
2023/01/01 02:27:00;;;;;;;11.77;3.53;;;;;;;;;;5035299;28;20087;-81
2023/01/01 02:29:26;;;;;;;9.57;2.60;;;;;;;;;;5041423;28;20085;-82
2023/01/01 02:32:01;;;;;;;9.43;3.35;;;;;;;;;;5040803;28;20033;-82
2023/01/01 02:34:29;;;;;;;11.15;3.63;;;;;;;;;;5022932;28;20029;-82
2023/01/01 02:36:57;;;;;;;10.20;3.20;;;;;;;;;;5029901;28;20032;-82
2023/01/01 02:39:27;;;;;;;11.27;3.10;;;;;;;;;;5021846;28;20034;-82
2023/01/01 02:41:54;;;;;;;14.52;2.85;;;;;;;;;;5039829;28;20494;-81
2023/01/01 02:44:21;;;;;;;13.98;3.40;;;;;;;;;;5041661;28;20026;-81
2023/01/01 02:46:47;;;;;;;12.27;3.40;;;;;;;;;;5041988;28;20025;-81
2023/01/01 02:49:13;;;;;;;12.75;3.50;;;;;;;;;;5030769;28;20037;-81
2023/01/01 02:51:48;;;;;;;10.25;3.40;;;;;;;;;;5021477;28;20021;-81
2023/01/01 02:54:29;;;;;;;13.13;3.70;;;;;;;;;;5024206;28;20030;-81
2023/01/01 02:57:07;;;;;;;13.68;3.53;;;;;;;;;;5041630;28;20039;-81
2023/01/01 03:02:43;;;;;;;9.35;2.83;;;;;;;;;;5039743;28;20041;-81
2023/01/01 03:05:20;;;;;;;12.10;3.30;;;;;;;;;;5024450;28;20389;-81
2023/01/01 03:08:01;;;;;;;10.07;2.88;;;;;;;;;;5043138;28;20053;-82
2023/01/01 03:10:32;;;;;;;10.60;3.13;;;;;;;;;;5033962;28;20033;-81
2023/01/01 03:13:03;;;;;;;12.25;4.18;;;;;;;;;;5041186;28;20476;-81
2023/01/01 03:15:55;;;;;;;12.23;3.45;;;;;;;;;;5041079;28;20025;-81
2023/01/01 03:18:25;;;;;;;11.20;3.50;;;;;;;;;;5032496;28;20034;-81
2023/01/01 03:20:53;;;;;;;11.18;3.33;;;;;;;;;;5039302;28;20392;-82
2023/01/01 03:23:25;;;;;;;15.23;3.13;;;;;;;;;;5021502;28;20041;-81
2023/01/01 03:25:54;;;;;;;11.85;3.85;;;;;;;;;;5021423;28;20554;-81
2023/01/01 03:28:23;;;;;;;13.50;3.65;;;;;;;;;;5036363;28;20029;-81
2023/01/01 03:30:50;;;;;;;15.77;4.10;;;;;;;;;;5041953;28;20108;-81
2023/01/01 03:33:29;;;;;;;18.42;4.18;;;;;;;;;;5041543;28;20469;-81
2023/01/01 03:35:55;;;;;;;12.40;3.80;;;;;;;;;;5031628;28;20041;-82
2023/01/01 03:38:23;;;;;;;17.52;3.85;;;;;;;;;;5032363;28;20080;-81
2023/01/01 03:40:51;;;;;;;14.85;3.72;;;;;;;;;;5033206;28;20034;-81
2023/01/01 03:43:23;;;;;;;12.10;3.15;;;;;;;;;;5039226;28;20101;-81
2023/01/01 03:45:50;;;;;;;12.77;3.00;;;;;;;;;;5041245;28;20040;-81
2023/01/01 03:48:16;;;;;;;19.23;4.22;;;;;;;;;;5039808;28;20038;-81
2023/01/01 03:51:01;;;;;;;12.93;3.45;;;;;;;;;;5041660;28;20025;-81
2023/01/01 03:53:33;;;;;;;16.67;3.97;;;;;;;;;;5043075;28;20044;-81
2023/01/01 03:56:25;;;;;;;11.45;3.13;;;;;;;;;;5043100;28;20057;-81
2023/01/01 03:59:07;;;;;;;25.85;5.80;;;;;;;;;;5031830;28;20045;-82
2023/01/01 04:01:35;;;;;;;18.88;3.10;;;;;;;;;;5041777;28;20048;-82
2023/01/01 04:04:03;;;;;;;17.52;3.53;;;;;;;;;;5042752;28;20036;-81
2023/01/01 04:06:29;;;;;;;12.65;3.03;;;;;;;;;;5039241;28;20037;-82
2023/01/01 04:08:58;;;;;;;16.63;3.30;;;;;;;;;;5040448;28;20420;-82
2023/01/01 04:14:10;;;;;;;16.33;3.13;;;;;;;;;;5044268;28;20098;-81
2023/01/01 04:16:36;;;;;;;11.95;2.80;;;;;;;;;;5038545;28;20109;-81
2023/01/01 04:19:05;;;;;;;11.02;2.70;;;;;;;;;;5025746;28;20037;-81
2023/01/01 04:21:31;;;;;;;12.27;2.60;;;;;;;;;;5029802;28;20006;-81
2023/01/01 04:23:57;;;;;;;15.10;3.50;;;;;;;;;;5044858;28;20032;-81
2023/01/01 04:26:23;;;;;;;12.95;2.63;;;;;;;;;;5027184;28;20045;-81
2023/01/01 04:28:49;;;;;;;9.48;3.13;;;;;;;;;;5044572;28;20056;-81
2023/01/01 04:31:15;;;;;;;15.35;2.40;;;;;;;;;;5042223;28;20072;-81
2023/01/01 04:33:41;;;;;;;17.13;3.78;;;;;;;;;;5038314;28;20438;-81
2023/01/01 04:36:08;;;;;;;17.17;3.65;;;;;;;;;;5044701;28;20117;-82
2023/01/01 04:38:35;;;;;;;16.58;3.25;;;;;;;;;;5044609;28;20029;-82
2023/01/01 04:41:01;;;;;;;18.95;3.60;;;;;;;;;;5044883;28;20088;-82
2023/01/01 04:43:28;;;;;;;17.75;3.97;;;;;;;;;;5044648;28;20079;-82
2023/01/01 04:46:00;;;;;;;19.23;3.55;;;;;;;;;;5045767;28;20029;-81
2023/01/01 04:48:27;;;;;;;15.77;3.95;;;;;;;;;;5047093;28;20034;-81
2023/01/01 04:50:54;;;;;;;15.15;3.40;;;;;;;;;;5049490;28;20029;-82
2023/01/01 04:53:20;;;;;;;12.80;3.33;;;;;;;;;;5048330;28;20033;-81
2023/01/01 04:55:46;;;;;;;14.77;3.13;;;;;;;;;;5041894;28;20026;-81
2023/01/01 04:58:12;;;;;;;16.17;3.17;;;;;;;;;;5042655;28;20034;-81
2023/01/01 05:00:38;;;;;;;20.27;3.83;;;;;;;;;;5040478;28;20048;-81
2023/01/01 05:03:05;;;;;;;24.58;4.30;;;;;;;;;;5049733;28;20049;-81
2023/01/01 05:05:31;;;;;;;12.57;2.63;;;;;;;;;;5041254;28;20030;-81
2023/01/01 05:07:57;;;;;;;17.73;2.78;;;;;;;;;;5049098;28;20055;-82
2023/01/01 05:10:23;;;;;;;16.17;2.45;;;;;;;;;;5041893;28;20041;-81
2023/01/01 05:12:49;;;;;;;18.17;3.15;;;;;;;;;;5042609;28;20453;-81
2023/01/01 05:15:15;;;;;;;14.75;2.85;;;;;;;;;;5051006;28;20030;-81
2023/01/01 05:17:41;;;;;;;11.57;2.60;;;;;;;;;;5047408;28;20033;-81
2023/01/01 05:20:07;;;;;;;20.58;2.97;;;;;;;;;;5044592;28;20029;-81
2023/01/01 05:22:33;;;;;;;21.85;3.60;;;;;;;;;;5050624;28;20049;-81
2023/01/01 05:24:59;;;;;;;14.77;2.90;;;;;;;;;;5049834;28;20040;-81
2023/01/01 05:27:25;;;;;;;19.67;2.85;;;;;;;;;;5050005;28;20057;-81
2023/01/01 05:29:51;;;;;;;18.65;2.88;;;;;;;;;;5049430;28;20029;-82
2023/01/01 05:32:17;;;;;;;11.23;2.67;;;;;;;;;;5041542;28;20037;-81
2023/01/01 05:34:43;;;;;;;14.60;2.67;;;;;;;;;;5030126;28;20029;-81
2023/01/01 05:37:09;;;;;;;12.25;2.03;;;;;;;;;;5043060;28;20026;-82
2023/01/01 05:39:36;;;;;;;14.07;3.28;;;;;;;;;;5050072;28;20034;-82
2023/01/01 05:42:02;;;;;;;10.63;1.75;;;;;;;;;;5047168;28;20358;-81
2023/01/01 05:44:28;;;;;;;15.70;1.75;;;;;;;;;;5031272;28;20032;-81
2023/01/01 05:46:54;;;;;;;14.98;2.83;;;;;;;;;;5038905;28;20053;-82
2023/01/01 05:49:20;;;;;;;14.40;2.30;;;;;;;;;;5035441;28;20081;-81
2023/01/01 05:51:46;;;;;;;14.02;2.10;;;;;;;;;;5049854;28;20507;-82
2023/01/01 05:54:12;;;;;;;11.45;2.22;;;;;;;;;;5035681;28;20030;-82
2023/01/01 05:56:38;;;;;;;9.40;1.65;;;;;;;;;;5043214;28;20032;-82
2023/01/01 05:59:04;;;;;;;13.15;1.48;;;;;;;;;;5050132;28;20041;-83
2023/01/01 06:01:31;;;;;;;14.20;2.08;;;;;;;;;;5050339;28;20065;-82
2023/01/01 06:03:57;;;;;;;12.52;2.25;;;;;;;;;;5048996;28;20029;-82
2023/01/01 06:06:32;;;;;;;13.13;2.53;;;;;;;;;;5037026;28;20515;-82
2023/01/01 06:09:03;;;;;;;16.52;2.15;;;;;;;;;;5035968;28;20017;-82
2023/01/01 06:11:29;;;;;;;12.20;2.85;;;;;;;;;;5035905;28;20037;-82
2023/01/01 06:13:57;;;;;;;12.35;2.60;;;;;;;;;;5036257;28;20029;-82
2023/01/01 06:16:23;;;;;;;18.48;2.00;;;;;;;;;;5017970;28;20036;-82
2023/01/01 06:18:49;;;;;;;11.88;2.10;;;;;;;;;;5035618;28;20427;-82
2023/01/01 06:21:20;;;;;;;14.52;2.30;;;;;;;;;;5035457;28;20029;-82
2023/01/01 06:23:46;;;;;;;13.57;1.85;;;;;;;;;;5035387;28;20368;-82
2023/01/01 06:26:16;;;;;;;15.52;2.40;;;;;;;;;;5035440;28;20025;-82
2023/01/01 06:28:43;;;;;;;13.07;2.08;;;;;;;;;;5035458;28;20111;-82
2023/01/01 06:31:10;;;;;;;15.30;2.60;;;;;;;;;;5037725;28;20037;-82
2023/01/01 06:33:36;;;;;;;18.00;2.05;;;;;;;;;;5016690;28;20124;-82
2023/01/01 06:36:04;;;;;;;12.93;2.45;;;;;;;;;;5015666;28;20045;-82
2023/01/01 06:38:31;;;;;;;19.10;2.63;;;;;;;;;;5031158;28;20025;-82
2023/01/01 06:41:01;;;;;;;15.32;2.55;;;;;;;;;;5012767;28;20025;-82
2023/01/01 06:43:29;;;;;;;14.05;2.10;;;;;;;;;;5021497;28;20017;-81
2023/01/01 06:46:13;;;;;;;17.52;2.58;;;;;;;;;;5037561;28;20096;-81
2023/01/01 06:48:39;;;;;;;15.73;2.28;;;;;;;;;;5019708;28;20033;-82
2023/01/01 06:51:10;;;;;;;18.95;2.47;;;;;;;;;;5037799;28;20151;-82
2023/01/01 06:53:36;;;;;;;16.77;2.20;;;;;;;;;;5037908;28;20030;-82
2023/01/01 06:56:02;;;;;;;13.15;2.28;;;;;;;;;;5038048;28;20029;-82
2023/01/01 06:58:28;;;;;;;13.63;2.38;;;;;;;;;;5036807;28;20427;-82
2023/01/01 07:00:54;;;;;;;22.15;3.20;;;;;;;;;;5036787;28;20076;-82
2023/01/01 07:03:20;;;;;;;13.25;1.83;;;;;;;;;;5037841;28;20365;-82
2023/01/01 07:05:46;;;;;;;21.15;2.17;;;;;;;;;;5038028;28;20504;-83
2023/01/01 07:08:12;;;;;;;15.98;2.55;;;;;;;;;;5036086;28;20055;-82
2023/01/01 07:10:38;;;;;;;21.08;3.00;;;;;;;;;;5035482;28;20472;-82
2023/01/01 07:13:04;;;;;;;16.10;2.85;;;;;;;;;;5036556;28;20069;-82
2023/01/01 07:15:30;;;;;;;15.05;3.47;;;;;;;;;;5036449;28;20436;-82
2023/01/01 07:17:56;;;;;;;15.73;2.78;;;;;;;;;;5018974;28;20392;-82
2023/01/01 07:20:22;;;;;;;20.95;3.88;;;;;;;;;;5017943;28;20025;-82
2023/01/01 07:22:48;;;;;;;20.15;2.35;;;;;;;;;;5035913;28;20105;-82
2023/01/01 07:25:15;;;;;;;19.25;2.40;;;;;;;;;;5036330;28;20486;-82
2023/01/01 07:27:41;;;;;;;20.15;2.67;;;;;;;;;;5033786;28;20020;-82
2023/01/01 07:30:07;;;;;;;21.92;2.65;;;;;;;;;;5037390;28;20025;-82
2023/01/01 07:32:33;;;;;;;19.65;2.50;;;;;;;;;;5037888;28;20106;-82
2023/01/01 07:34:59;;;;;;;14.98;2.28;;;;;;;;;;5034364;28;20057;-82
2023/01/01 07:37:25;;;;;;;27.77;3.08;;;;;;;;;;5034296;28;20420;-82
2023/01/01 07:39:51;;;;;;;22.33;2.72;;;;;;;;;;5024587;28;20037;-81
2023/01/01 07:42:17;;;;;;;16.23;2.20;;;;;;;;;;5016042;28;20037;-82
2023/01/01 07:44:43;;;;;;;22.00;3.28;;;;;;;;;;5034703;28;20683;-82
2023/01/01 07:47:21;;;;;;;24.50;2.40;;;;;;;;;;5035072;28;20025;-81
2023/01/01 07:49:47;;;;;;;23.10;3.08;;;;;;;;;;5035140;28;20037;-82
2023/01/01 07:52:13;;;;;;;23.08;2.65;;;;;;;;;;5017252;28;20029;-81
2023/01/01 07:54:39;;;;;;;21.77;3.53;;;;;;;;;;5024220;28;20028;-81
2023/01/01 07:57:05;;;;;;;19.63;3.17;;;;;;;;;;5035134;28;20026;-81
2023/01/01 07:59:31;;;;;;;24.85;3.17;;;;;;;;;;5035010;28;20484;-81
2023/01/01 08:01:57;;;;;;;20.70;3.13;;;;;;;;;;5017588;28;20026;-81
2023/01/01 08:04:25;;;;;;;15.52;3.03;;;;;;;;;;5034921;28;20021;-81
2023/01/01 08:06:52;;;;;;;21.52;2.90;;;;;;;;;;5017451;28;20017;-81
2023/01/01 08:09:18;;;;;;;21.73;3.92;;;;;;;;;;5038006;28;20120;-81
2023/01/01 08:11:44;;;;;;;20.38;2.97;;;;;;;;;;5039989;28;20033;-81
2023/01/01 08:14:10;;;;;;;32.63;4.30;;;;;;;;;;5041098;28;20040;-80
2023/01/01 08:16:36;;;;;;;17.63;2.90;;;;;;;;;;5036725;28;20026;-81
2023/01/01 08:19:02;;;;;;;26.88;3.08;;;;;;;;;;5043578;28;20047;-81
2023/01/01 08:21:28;;;;;;;25.50;3.42;;;;;;;;;;5035462;28;20411;-81
2023/01/01 08:23:55;;;;;;;21.35;3.00;;;;;;;;;;5037385;28;20072;-81
2023/01/01 08:26:31;;;;;;;12.05;2.33;;;;;;;;;;5040819;28;20022;-81
2023/01/01 08:28:57;;;;;;;22.45;3.35;;;;;;;;;;5037624;28;20055;-81
2023/01/01 08:31:23;;;;;;;24.77;3.80;;;;;;;;;;5040798;28;20036;-82
2023/01/01 08:33:49;;;;;;;16.75;2.72;;;;;;;;;;5043472;28;20028;-82
2023/01/01 08:36:15;;;;;;;14.25;2.55;;;;;;;;;;5038772;28;20124;-81
2023/01/01 08:38:42;;;;;;;21.48;2.72;;;;;;;;;;5043721;28;20061;-81
2023/01/01 08:41:08;;;;;;;17.92;2.60;;;;;;;;;;5053963;28;20025;-81
2023/01/01 08:43:34;;;;;;;20.90;3.22;;;;;;;;;;5039368;28;20021;-81
2023/01/01 08:46:00;;;;;;;21.42;3.00;;;;;;;;;;5043681;28;20048;-81
2023/01/01 08:48:26;;;;;;;17.17;3.30;;;;;;;;;;5037636;28;20030;-81
2023/01/01 08:50:53;;;;;;;21.67;2.75;;;;;;;;;;5044074;28;20388;-81
2023/01/01 08:53:19;;;;;;;19.20;2.67;;;;;;;;;;5040979;28;20032;-81
2023/01/01 08:55:45;;;;;;;25.67;3.58;;;;;;;;;;5035609;28;20034;-81
2023/01/01 08:58:11;;;;;;;30.27;3.92;;;;;;;;;;5018210;28;20036;-81
2023/01/01 09:00:37;;;;;;;21.92;3.50;;;;;;;;;;5020785;28;20424;-81
2023/01/01 09:03:03;;;;;;;22.15;4.03;;;;;;;;;;5019192;28;20030;-81
2023/01/01 09:05:29;;;;;;;19.33;2.72;;;;;;;;;;5024006;28;20468;-81
2023/01/01 09:07:55;;;;;;;20.83;4.35;;;;;;;;;;5040439;28;20029;-81
2023/01/01 09:10:21;;;;;;;21.23;3.75;;;;;;;;;;5045356;28;20073;-81
2023/01/01 09:12:52;;;;;;;18.42;3.20;;;;;;;;;;5037813;28;20029;-81
2023/01/01 09:15:18;;;;;;;26.23;4.50;;;;;;;;;;5034071;28;20476;-80
2023/01/01 09:17:44;;;;;;;23.23;3.72;;;;;;;;;;5047227;28;20033;-80
2023/01/01 09:20:10;;;;;;;20.98;3.65;;;;;;;;;;5041081;28;20033;-80
2023/01/01 09:22:37;;;;;;;18.98;3.63;;;;;;;;;;5039551;28;20025;-80
2023/01/01 09:25:07;;;;;;;25.20;3.55;;;;;;;;;;5037312;28;20025;-81
2023/01/01 09:27:33;;;;;;;;;;;;;;;;;;5019810;28;20067;-81
2023/01/01 09:29:59;;;;;;;16.95;3.65;;;;;;;;;;5039977;28;19909;-81
2023/01/01 09:32:25;;;;;;;21.40;4.60;;;;;;;;;;5047615;28;20025;-81
2023/01/01 09:34:51;;;;;;;19.92;3.10;;;;;;;;;;5036318;28;20101;-81
2023/01/01 09:37:17;;;;;;;18.05;2.88;;;;;;;;;;5040594;28;20049;-81
2023/01/01 09:39:43;;;;;;;19.27;3.60;;;;;;;;;;5048223;28;20034;-81
2023/01/01 09:42:18;;;;;;;18.85;2.47;;;;;;;;;;5042668;28;20060;-81
2023/01/01 09:45:00;;;;;;;18.98;2.58;;;;;;;;;;5035022;28;20025;-81
2023/01/01 09:47:40;;;;;;;23.77;3.30;;;;;;;;;;5042050;28;20025;-81
2023/01/01 09:50:11;;;;;;;15.95;3.45;;;;;;;;;;5038859;28;20049;-81
2023/01/01 09:52:40;;;;;;;18.35;3.17;;;;;;;;;;5039102;28;20028;-81
2023/01/01 09:55:16;;;;;;;21.77;3.28;;;;;;;;;;5046156;28;20030;-81
2023/01/01 09:57:42;;;;;;;24.48;2.65;;;;;;;;;;5036184;28;20465;-81
2023/01/01 10:00:15;;;;;;;17.98;2.47;;;;;;;;;;5037985;28;20500;-80
2023/01/01 10:02:41;;;;;;;24.65;3.53;;;;;;;;;;5040231;28;21657;-80
2023/01/01 10:05:07;;;;;;;24.08;3.22;;;;;;;;;;5036128;28;20057;-80
2023/01/01 10:07:51;;;;;;;19.63;2.95;;;;;;;;;;5036762;28;20470;-81
2023/01/01 10:10:26;;;;;;;23.35;3.38;;;;;;;;;;5041688;28;20543;-82
2023/01/01 10:12:56;;;;;;;18.40;3.25;;;;;;;;;;5018800;28;20025;-81
2023/01/01 10:15:29;;;;;;;14.10;2.28;;;;;;;;;;5036408;28;20494;-80
2023/01/01 10:17:58;;;;;;;19.73;2.75;;;;;;;;;;5038739;28;20026;-81
2023/01/01 10:20:43;;;;;;;14.35;2.95;;;;;;;;;;5021178;28;20076;-81
2023/01/01 10:23:20;;;;;;;16.85;2.72;;;;;;;;;;5019488;28;20037;-80
2023/01/01 10:25:46;;;;;;;20.60;3.05;;;;;;;;;;5033349;28;20033;-81
2023/01/01 10:28:15;;;;;;;17.08;2.45;;;;;;;;;;5037398;28;20446;-81
2023/01/01 10:30:42;;;;;;;21.00;2.58;;;;;;;;;;5035611;28;20103;-81
2023/01/01 10:33:10;;;;;;;16.67;2.72;;;;;;;;;;5035424;28;20427;-81
2023/01/01 10:35:41;;;;;;;12.90;2.40;;;;;;;;;;5034970;28;20028;-81
2023/01/01 10:38:07;;;;;;;20.48;2.83;;;;;;;;;;5035186;28;20057;-80
2023/01/01 10:40:33;;;;;;;21.35;4.05;;;;;;;;;;5034855;28;20036;-80
2023/01/01 10:43:00;;;;;;;10.38;2.17;;;;;;;;;;5035316;28;20103;-80
2023/01/01 10:45:41;;;;;;;14.07;2.10;;;;;;;;;;5034677;28;20022;-80
2023/01/01 10:48:10;;;;;;;12.88;2.13;;;;;;;;;;5035041;28;20029;-80
2023/01/01 10:50:47;;;;;;;15.07;3.17;;;;;;;;;;5015179;28;20026;-80
2023/01/01 10:53:30;;;;;;;14.30;3.10;;;;;;;;;;5014689;28;20065;-80
2023/01/01 10:56:02;;;;;;;21.15;2.92;;;;;;;;;;5014749;28;20492;-80
2023/01/01 10:58:40;;;;;;;13.13;2.20;;;;;;;;;;5015563;28;20026;-80
2023/01/01 11:01:08;;;;;;;17.85;2.80;;;;;;;;;;5014535;28;20077;-80
2023/01/01 11:03:34;;;;;;;19.67;2.95;;;;;;;;;;5014670;28;20037;-80
2023/01/01 11:06:26;;;;;;;18.55;2.67;;;;;;;;;;5014760;28;20026;-80
2023/01/01 11:08:56;;;;;;;20.92;2.60;;;;;;;;;;5024993;28;20049;-80
2023/01/01 11:11:26;;;;;;;23.08;2.92;;;;;;;;;;5034728;28;20029;-80
2023/01/01 11:13:53;;;;;;;19.08;3.20;;;;;;;;;;5035415;28;20021;-80
2023/01/01 11:16:19;;;;;;;17.50;2.30;;;;;;;;;;5034478;28;20032;-81
2023/01/01 11:18:45;;;;;;;24.65;4.28;;;;;;;;;;5034119;28;20105;-80
2023/01/01 11:21:18;;;;;;;16.33;2.50;;;;;;;;;;5016335;28;20017;-80
2023/01/01 11:23:44;;;;;;;20.60;2.92;;;;;;;;;;5035720;28;20121;-80
2023/01/01 11:26:16;;;;;;;13.55;3.05;;;;;;;;;;5030699;28;20029;-80
2023/01/01 11:28:57;;;;;;;15.07;2.63;;;;;;;;;;5034551;28;20049;-81
2023/01/01 11:31:26;;;;;;;17.63;3.13;;;;;;;;;;5018923;28;20046;-80
2023/01/01 11:33:53;;;;;;;15.75;2.92;;;;;;;;;;5037687;28;20081;-80
2023/01/01 11:36:22;;;;;;;18.73;3.42;;;;;;;;;;5038464;28;20074;-80
2023/01/01 11:39:03;;;;;;;24.20;3.70;;;;;;;;;;5038214;28;20036;-80
2023/01/01 11:41:39;;;;;;;20.50;3.17;;;;;;;;;;5034103;28;20499;-80
2023/01/01 11:44:05;;;;;;;14.30;2.40;;;;;;;;;;5033811;28;20388;-80
2023/01/01 11:46:31;;;;;;;20.70;3.10;;;;;;;;;;5028429;28;20033;-80
2023/01/01 11:48:57;;;;;;;15.00;2.20;;;;;;;;;;5024410;28;20030;-81
2023/01/01 11:51:31;;;;;;;15.85;3.08;;;;;;;;;;5018180;28;20511;-80
2023/01/01 11:54:17;;;;;;;15.77;2.42;;;;;;;;;;5037054;28;20026;-81
2023/01/01 11:56:43;;;;;;;15.57;2.53;;;;;;;;;;5023560;28;20037;-80
2023/01/01 11:59:14;;;;;;;13.50;1.95;;;;;;;;;;5042445;28;20435;-81
2023/01/01 12:01:40;;;;;;;20.45;2.45;;;;;;;;;;5040567;28;20571;-82
2023/01/01 12:04:08;;;;;;;15.32;2.78;;;;;;;;;;5038006;28;20026;-82
2023/01/01 12:06:34;;;;;;;17.38;2.67;;;;;;;;;;5033157;28;20029;-82
2023/01/01 12:09:09;;;;;;;13.80;2.63;;;;;;;;;;5040299;28;20030;-81
2023/01/01 12:11:44;;;;;;;15.93;2.70;;;;;;;;;;5040535;28;20029;-82
2023/01/01 12:14:19;;;;;;;15.95;3.42;;;;;;;;;;5040237;28;20021;-80
2023/01/01 12:16:54;;;;;;;15.85;2.08;;;;;;;;;;5039410;28;20025;-80
2023/01/01 12:19:27;;;;;;;15.13;2.40;;;;;;;;;;5039501;28;20113;-81
2023/01/01 12:21:56;;;;;;;16.90;2.08;;;;;;;;;;5030254;28;20104;-80
2023/01/01 12:24:21;;;;;;;12.88;2.17;;;;;;;;;;5040812;28;20026;-80
2023/01/01 12:26:51;;;;;;;13.80;2.95;;;;;;;;;;5034661;28;20022;-80
2023/01/01 12:29:35;;;;;;;12.13;2.75;;;;;;;;;;5018642;28;20037;-80
2023/01/01 12:32:04;;;;;;;21.58;3.25;;;;;;;;;;5019342;28;20057;-80
2023/01/01 12:34:35;;;;;;;16.23;2.50;;;;;;;;;;5030724;28;20026;-80
2023/01/01 12:37:13;;;;;;;16.35;2.42;;;;;;;;;;5038883;28;20034;-80
2023/01/01 12:39:57;;;;;;;15.73;2.35;;;;;;;;;;5038537;28;20076;-80
2023/01/01 12:42:34;;;;;;;20.58;3.00;;;;;;;;;;5030663;28;20535;-80
2023/01/01 12:45:05;;;;;;;16.85;2.92;;;;;;;;;;5024523;28;20400;-80
2023/01/01 12:47:37;;;;;;;16.45;2.15;;;;;;;;;;5039156;28;20121;-80
2023/01/01 12:50:06;;;;;;;14.73;2.42;;;;;;;;;;5039030;28;20048;-80
2023/01/01 12:52:54;;;;;;;14.00;2.35;;;;;;;;;;5044692;28;20029;-80
2023/01/01 12:55:20;;;;;;;10.10;2.03;;;;;;;;;;5037498;28;20108;-80
2023/01/01 12:57:49;;;;;;;16.92;3.67;;;;;;;;;;5038355;28;20578;-80
2023/01/01 13:00:19;;;;;;;18.02;2.58;;;;;;;;;;5038515;28;20071;-80
2023/01/01 13:02:50;;;;;;;17.70;3.08;;;;;;;;;;5038349;28;20108;-80
2023/01/01 13:05:24;;;;;;;16.50;2.47;;;;;;;;;;5020715;28;20026;-80
2023/01/01 13:07:54;;;;;;;16.48;2.40;;;;;;;;;;5037838;28;20104;-80
2023/01/01 13:10:39;;;;;;;12.82;2.25;;;;;;;;;;5037130;28;20028;-80
2023/01/01 13:13:05;;;;;;;20.10;3.90;;;;;;;;;;5038008;28;20025;-80
2023/01/01 13:15:34;;;;;;;10.93;2.15;;;;;;;;;;5037670;28;20025;-80
2023/01/01 13:18:01;;;;;;;14.80;2.65;;;;;;;;;;5037752;28;20029;-80
2023/01/01 13:20:27;;;;;;;17.77;2.55;;;;;;;;;;5034489;28;20029;-80
2023/01/01 13:22:53;;;;;;;17.15;3.08;;;;;;;;;;5017521;28;20022;-80
2023/01/01 13:25:27;;;;;;;11.65;2.58;;;;;;;;;;5017781;28;20527;-80
2023/01/01 13:27:55;;;;;;;18.33;2.42;;;;;;;;;;5017432;28;20412;-80
2023/01/01 13:30:40;;;;;;;15.13;2.35;;;;;;;;;;5018236;28;20119;-81
2023/01/01 13:33:17;;;;;;;13.65;2.45;;;;;;;;;;5017447;28;20018;-80
2023/01/01 13:35:43;;;;;;;14.55;1.75;;;;;;;;;;5017792;28;20095;-80
2023/01/01 13:38:27;;;;;;;15.05;2.30;;;;;;;;;;5017642;28;20057;-80
2023/01/01 13:40:53;;;;;;;13.80;2.80;;;;;;;;;;5017075;28;20021;-80
2023/01/01 13:43:20;;;;;;;17.58;3.10;;;;;;;;;;5017738;28;20381;-80
2023/01/01 13:45:54;;;;;;;17.30;2.67;;;;;;;;;;5030723;28;20049;-80
2023/01/01 13:48:39;;;;;;;19.30;2.92;;;;;;;;;;5044521;28;20060;-80
2023/01/01 13:51:29;;;;;;;13.32;2.83;;;;;;;;;;5020676;28;20057;-80
2023/01/01 13:54:13;;;;;;;17.13;2.47;;;;;;;;;;5036680;28;20033;-80
2023/01/01 13:56:45;;;;;;;15.30;1.98;;;;;;;;;;5036300;28;20033;-80
2023/01/01 13:59:17;;;;;;;14.45;2.47;;;;;;;;;;5036532;28;20026;-80
2023/01/01 14:02:03;;;;;;;18.45;2.80;;;;;;;;;;5036671;28;20031;-80
2023/01/01 14:04:29;;;;;;;19.15;2.83;;;;;;;;;;5019127;28;20022;-80
2023/01/01 14:06:58;;;;;;;17.83;3.08;;;;;;;;;;5036601;28;20044;-79
2023/01/01 14:09:24;;;;;;;18.00;2.20;;;;;;;;;;5036213;28;20637;-79
2023/01/01 14:11:50;;;;;;;13.27;2.40;;;;;;;;;;5041497;28;20034;-80
2023/01/01 14:14:23;;;;;;;18.95;3.47;;;;;;;;;;5040612;28;20056;-80
2023/01/01 14:16:50;;;;;;;10.52;2.25;;;;;;;;;;5019752;28;20033;-80
2023/01/01 14:19:16;;;;;;;10.57;2.03;;;;;;;;;;5036080;28;20496;-80
2023/01/01 14:21:42;;;;;;;19.13;3.15;;;;;;;;;;5049093;28;20530;-80
2023/01/01 14:24:11;;;;;;;14.80;1.95;;;;;;;;;;5017870;28;20032;-80
2023/01/01 14:26:38;;;;;;;12.68;1.88;;;;;;;;;;5041483;28;20026;-80
2023/01/01 14:29:08;;;;;;;16.48;3.00;;;;;;;;;;5042074;28;20033;-80
2023/01/01 14:31:35;;;;;;;20.38;3.05;;;;;;;;;;5042217;28;20475;-80
2023/01/01 14:34:12;;;;;;;22.73;2.92;;;;;;;;;;5050079;28;20450;-80
2023/01/01 14:36:48;;;;;;;17.42;2.75;;;;;;;;;;5037167;28;20036;-80
2023/01/01 14:39:26;;;;;;;15.75;2.85;;;;;;;;;;5023990;28;20084;-80
2023/01/01 14:41:54;;;;;;;18.00;2.65;;;;;;;;;;5031266;28;20030;-80
2023/01/01 14:44:21;;;;;;;14.00;2.40;;;;;;;;;;5034951;28;20041;-80
2023/01/01 14:46:48;;;;;;;16.75;2.70;;;;;;;;;;5035306;28;20048;-79
2023/01/01 14:49:20;;;;;;;12.52;2.33;;;;;;;;;;5046032;28;20048;-80
2023/01/01 14:51:54;;;;;;;12.77;2.28;;;;;;;;;;5034675;28;20112;-80